Time;durP1;ratioP1;P1;durP2;ratioP2;P2;SDS_P1;SDS_P2;PMS_P1;PMS_P2;Temp;Humidity;BMP_temperature;BMP_pressure;BME280_temperature;BME280_humidity;BME280_pressure;Samples;Min_cycle;Max_cycle;Signal;HPM_P1;HPM_P2
2022/08/29 00:00:37;;;;;;;7.10;2.38;;;18.80;93.30;;;;;;5090172;28;20231;-58
2022/08/29 00:03:03;;;;;;;5.68;2.20;;;18.80;93.30;;;;;;5079118;28;20181;-59
2022/08/29 00:05:32;;;;;;;4.20;2.20;;;18.80;93.40;;;;;;5104434;28;20239;-57
2022/08/29 00:08:00;;;;;;;8.40;2.15;;;18.80;93.40;;;;;;5084846;28;20173;-57
2022/08/29 00:10:27;;;;;;;5.05;2.20;;;18.70;93.40;;;;;;5096973;28;20221;-58
2022/08/29 00:12:53;;;;;;;5.03;1.83;;;18.70;93.50;;;;;;5100535;28;20287;-58
2022/08/29 00:15:19;;;;;;;6.25;2.22;;;18.70;93.40;;;;;;5090468;28;20269;-58
2022/08/29 00:17:46;;;;;;;7.70;2.00;;;18.70;93.40;;;;;;5088428;28;20174;-57
2022/08/29 00:20:16;;;;;;;4.93;2.20;;;18.70;93.40;;;;;;5095011;28;20728;-61
2022/08/29 00:22:42;;;;;;;5.68;2.03;;;18.70;93.50;;;;;;5087369;28;20533;-63
2022/08/29 00:25:09;;;;;;;6.22;2.30;;;18.60;93.40;;;;;;5088877;28;20234;-60
2022/08/29 00:27:35;;;;;;;5.75;1.90;;;18.60;93.60;;;;;;5099006;28;20639;-63
2022/08/29 00:30:01;;;;;;;7.57;2.35;;;18.50;93.70;;;;;;5088647;28;20186;-58
2022/08/29 00:32:33;;;;;;;4.97;2.58;;;18.50;93.80;;;;;;5092978;28;20190;-57
2022/08/29 00:35:24;;;;;;;7.68;2.80;;;18.50;94.00;;;;;;5092280;28;20268;-57
2022/08/29 00:37:53;;;;;;;9.60;2.63;;;18.40;94.00;;;;;;5075145;28;20174;-57
2022/08/29 00:40:23;;;;;;;6.30;2.40;;;18.40;94.10;;;;;;5102069;28;20288;-57
2022/08/29 00:42:50;;;;;;;8.55;2.55;;;18.40;94.20;;;;;;5109981;28;20189;-58
2022/08/29 00:45:16;;;;;;;8.25;2.78;;;18.40;94.30;;;;;;5097530;28;20223;-57
2022/08/29 00:47:56;;;;;;;6.88;2.75;;;18.30;94.30;;;;;;5092361;28;20174;-58
2022/08/29 00:50:34;;;;;;;9.50;2.65;;;18.40;94.40;;;;;;5089442;28;20174;-57
2022/08/29 00:53:03;;;;;;;9.30;2.80;;;18.30;94.40;;;;;;5106420;28;20224;-57
2022/08/29 00:55:32;;;;;;;4.97;2.58;;;18.30;94.40;;;;;;5089548;28;20196;-63
2022/08/29 00:58:05;;;;;;;8.70;2.40;;;18.20;94.50;;;;;;5102337;28;20253;-56
2022/08/29 01:00:32;;;;;;;8.85;2.83;;;18.10;94.90;;;;;;5088341;28;20196;-57
2022/08/29 01:02:57;;;;;;;6.30;2.97;;;18.10;94.70;;;;;;5110548;28;20304;-58
2022/08/29 01:05:24;;;;;;;6.22;2.70;;;18.10;94.70;;;;;;5097380;28;20265;-59
2022/08/29 01:07:50;;;;;;;6.03;2.92;;;18.10;94.80;;;;;;5093035;28;20274;-58
2022/08/29 01:13:04;;;;;;;5.93;2.65;;;18.00;94.90;;;;;;5101553;28;20178;-60
2022/08/29 01:15:32;;;;;;;10.32;2.70;;;18.10;94.90;;;;;;5081593;28;20294;-59
2022/08/29 01:17:59;;;;;;;7.85;2.78;;;18.00;94.90;;;;;;5094247;28;20242;-58
2022/08/29 01:21:02;;;;;;;5.75;2.63;;;18.00;95.00;;;;;;5084602;28;20200;-58
2022/08/29 01:23:34;;;;;;;6.78;2.40;;;18.00;95.00;;;;;;5115737;28;20181;-64
2022/08/29 01:26:01;;;;;;;6.53;2.75;;;18.00;95.00;;;;;;5095586;28;20177;-59
2022/08/29 01:28:34;;;;;;;7.50;2.60;;;18.00;95.10;;;;;;5087824;27;20180;-61
2022/08/29 01:31:05;;;;;;;7.15;2.80;;;17.90;95.10;;;;;;5094065;28;20202;-58
2022/08/29 01:33:42;;;;;;;5.95;2.90;;;17.90;95.20;;;;;;5094589;28;20220;-58
2022/08/29 01:36:11;;;;;;;6.78;2.60;;;17.90;95.20;;;;;;5096538;28;20174;-57
2022/08/29 01:38:38;;;;;;;6.72;3.00;;;17.90;95.20;;;;;;5099275;28;20180;-60
2022/08/29 01:41:05;;;;;;;7.53;2.83;;;17.90;95.30;;;;;;5097183;27;20298;-58
2022/08/29 01:43:42;;;;;;;9.50;3.15;;;17.80;95.40;;;;;;5097497;27;20188;-57
2022/08/29 01:46:13;;;;;;;8.43;3.00;;;17.80;95.50;;;;;;5078846;28;20186;-57
2022/08/29 01:48:42;;;;;;;7.00;2.70;;;17.80;95.60;;;;;;5095365;28;20177;-63
2022/08/29 01:51:08;;;;;;;5.80;2.90;;;17.80;95.60;;;;;;5095070;27;20186;-56
2022/08/29 01:53:35;;;;;;;10.85;3.58;;;17.80;95.60;;;;;;5098317;28;20266;-57
2022/08/29 01:56:34;;;;;;;6.80;2.50;;;17.80;95.70;;;;;;5106423;28;20264;-57
2022/08/29 01:59:04;;;;;;;4.05;2.40;;;17.80;95.70;;;;;;5087879;28;20189;-58
2022/08/29 02:01:34;;;;;;;6.70;3.00;;;17.80;95.80;;;;;;5095250;28;20193;-59
2022/08/29 02:03:59;;;;;;;4.25;2.83;;;17.80;95.80;;;;;;5093586;28;20542;-57
2022/08/29 02:06:26;;;;;;;4.30;3.00;;;17.80;95.80;;;;;;5105052;27;20242;-57
2022/08/29 02:08:53;;;;;;;6.13;3.08;;;17.80;95.90;;;;;;5112376;28;20261;-58
2022/08/29 02:11:19;;;;;;;6.63;2.95;;;17.80;95.90;;;;;;5116387;28;20180;-57
2022/08/29 02:13:55;;;;;;;6.90;3.00;;;17.80;95.90;;;;;;5104354;28;20185;-59
2022/08/29 02:16:22;;;;;;;6.40;3.35;;;17.80;95.90;;;;;;5101471;27;20174;-57
2022/08/29 02:18:48;;;;;;;8.02;3.13;;;17.70;96.10;;;;;;5091632;27;20181;-58
2022/08/29 02:21:18;;;;;;;7.97;3.58;;;17.70;96.20;;;;;;5091371;28;20209;-60
2022/08/29 02:23:45;;;;;;;8.25;3.22;;;17.60;96.20;;;;;;5103607;27;20286;-57
2022/08/29 02:26:11;;;;;;;5.38;3.33;;;17.60;96.30;;;;;;5085225;28;20546;-58
2022/08/29 02:28:38;;;;;;;7.53;3.45;;;17.60;96.30;;;;;;5090659;28;20189;-64
2022/08/29 02:31:06;;;;;;;6.60;3.30;;;17.60;96.40;;;;;;5090684;27;20635;-62
2022/08/29 02:33:31;;;;;;;7.68;3.30;;;17.60;96.40;;;;;;5087355;28;20230;-59
2022/08/29 02:35:58;;;;;;;8.35;3.60;;;17.60;96.50;;;;;;5093503;27;20185;-59
2022/08/29 02:38:24;;;;;;;8.82;3.40;;;17.60;96.60;;;;;;5109985;28;20175;-60
2022/08/29 02:40:51;;;;;;;5.82;3.30;;;17.60;96.60;;;;;;5094799;28;20203;-57
2022/08/29 02:43:18;;;;;;;5.28;3.25;;;17.60;96.60;;;;;;5099565;28;20660;-58
2022/08/29 02:45:45;;;;;;;6.47;3.20;;;17.60;96.60;;;;;;5078829;28;20201;-64
2022/08/29 02:48:12;;;;;;;8.32;3.72;;;17.60;96.70;;;;;;5076126;28;20173;-58
2022/08/29 02:50:46;;;;;;;8.23;3.08;;;17.60;96.70;;;;;;5106246;27;20216;-62
2022/08/29 02:53:15;;;;;;;7.20;3.40;;;17.60;97.10;;;;;;5114386;28;20216;-63
2022/08/29 02:55:40;;;;;;;7.53;3.33;;;17.60;96.80;;;;;;5094544;27;20177;-62
2022/08/29 02:58:07;;;;;;;7.45;3.33;;;17.60;96.90;;;;;;5101612;28;20181;-58
2022/08/29 03:00:35;;;;;;;8.30;3.10;;;17.60;97.00;;;;;;5094735;28;20572;-58
2022/08/29 03:03:02;;;;;;;9.93;3.53;;;17.60;97.00;;;;;;5089392;28;20239;-59
2022/08/29 03:05:33;;;;;;;7.82;3.30;;;17.60;96.90;;;;;;5103503;28;20181;-57
2022/08/29 03:08:00;;;;;;;6.20;3.15;;;17.70;96.80;;;;;;5098168;28;20623;-58
2022/08/29 03:10:27;;;;;;;9.75;3.55;;;17.70;96.70;;;;;;5095579;27;20189;-58
2022/08/29 03:12:53;;;;;;;9.60;3.80;;;17.80;96.60;;;;;;5087871;28;20178;-58
2022/08/29 03:15:21;;;;;;;8.95;3.28;;;17.80;96.60;;;;;;5104188;27;20233;-62
2022/08/29 03:17:47;;;;;;;8.57;4.13;;;17.80;96.50;;;;;;5098184;28;20177;-58
2022/08/29 03:20:16;;;;;;;5.68;3.60;;;17.90;96.50;;;;;;5095109;28;20209;-57
2022/08/29 03:22:44;;;;;;;10.85;3.75;;;17.90;96.40;;;;;;5114335;28;20230;-58
2022/08/29 03:25:11;;;;;;;10.43;3.67;;;17.90;96.40;;;;;;5080116;28;20224;-58
2022/08/29 03:27:38;;;;;;;9.40;3.85;;;17.90;96.70;;;;;;5082574;28;20189;-59
2022/08/29 03:30:06;;;;;;;8.23;3.80;;;17.90;96.40;;;;;;5098498;28;20182;-58
2022/08/29 03:32:32;;;;;;;8.68;3.53;;;17.90;96.40;;;;;;5080798;28;20226;-61
2022/08/29 03:34:58;;;;;;;8.57;3.78;;;17.90;96.40;;;;;;5086462;27;20248;-58
2022/08/29 03:37:26;;;;;;;5.90;3.22;;;17.90;96.30;;;;;;5101330;28;20187;-61
2022/08/29 03:39:52;;;;;;;6.75;3.97;;;18.00;96.30;;;;;;5087198;28;20186;-59
2022/08/29 03:42:19;;;;;;;8.48;3.80;;;18.00;96.30;;;;;;5090767;28;20193;-57
2022/08/29 03:44:45;;;;;;;6.00;3.60;;;18.00;96.30;;;;;;5082380;28;20234;-56
2022/08/29 03:47:10;;;;;;;9.68;3.75;;;18.00;96.40;;;;;;5075984;28;20182;-58
2022/08/29 03:49:37;;;;;;;8.27;4.03;;;18.00;96.50;;;;;;5073752;27;20318;-58
2022/08/29 03:52:03;;;;;;;13.00;3.60;;;18.00;96.70;;;;;;5107908;28;20217;-58
2022/08/29 03:54:29;;;;;;;7.68;3.70;;;18.00;96.80;;;;;;5091900;28;20184;-57
2022/08/29 03:56:55;;;;;;;7.28;3.42;;;18.00;97.00;;;;;;5113957;28;20181;-57
2022/08/29 03:59:22;;;;;;;8.05;3.60;;;18.00;97.10;;;;;;5085154;28;20177;-59
2022/08/29 04:01:48;;;;;;;7.70;3.92;;;17.90;97.20;;;;;;5093779;28;20213;-57
2022/08/29 04:05:05;;;;;;;9.60;3.75;;;17.90;97.30;;;;;;5102378;28;20185;-65
2022/08/29 04:07:02;;;;;;;9.10;4.05;;;17.90;97.40;;;;;;5105252;28;20233;-57
2022/08/29 04:09:28;;;;;;;8.18;3.80;;;17.90;97.50;;;;;;5103991;28;20181;-57
2022/08/29 04:11:54;;;;;;;8.45;3.72;;;17.90;97.50;;;;;;5095437;28;20180;-59
2022/08/29 04:14:20;;;;;;;6.35;3.80;;;17.90;97.50;;;;;;5085336;28;20181;-56
2022/08/29 04:16:49;;;;;;;11.10;3.83;;;17.90;97.60;;;;;;5094184;28;20184;-58
2022/08/29 04:19:19;;;;;;;8.23;4.13;;;17.90;97.60;;;;;;5106212;28;20189;-58
2022/08/29 04:21:47;;;;;;;8.13;3.67;;;17.90;97.80;;;;;;5111183;28;20216;-58
2022/08/29 04:24:14;;;;;;;7.07;4.13;;;17.90;97.80;;;;;;5107401;28;20254;-57
2022/08/29 04:26:39;;;;;;;10.75;4.07;;;17.80;97.90;;;;;;5093159;28;20181;-58
2022/08/29 04:29:10;;;;;;;8.70;4.53;;;17.80;98.00;;;;;;5080661;28;20184;-57
2022/08/29 04:31:37;;;;;;;6.13;3.88;;;17.90;98.00;;;;;;5092159;28;20210;-57
2022/08/29 04:34:05;;;;;;;8.55;4.30;;;17.90;98.00;;;;;;5095320;28;20166;-58
2022/08/29 04:36:33;;;;;;;6.80;4.00;;;17.80;98.00;;;;;;5072072;28;20877;-59
2022/08/29 04:38:59;;;;;;;8.52;3.83;;;17.80;98.10;;;;;;5091497;28;20185;-58
2022/08/29 04:41:25;;;;;;;9.50;4.40;;;17.90;98.10;;;;;;5100003;28;20211;-59
2022/08/29 04:43:50;;;;;;;9.05;4.55;;;17.90;98.10;;;;;;5089932;28;20227;-58
2022/08/29 04:46:16;;;;;;;11.52;4.10;;;17.90;98.20;;;;;;5108579;28;20258;-59
2022/08/29 04:48:42;;;;;;;9.27;4.50;;;17.90;98.20;;;;;;5094243;28;20166;-64
2022/08/29 04:51:09;;;;;;;9.35;4.38;;;17.90;98.30;;;;;;5097533;28;20577;-59
2022/08/29 04:53:35;;;;;;;13.57;4.43;;;17.90;98.30;;;;;;5108690;28;20225;-60
2022/08/29 04:56:05;;;;;;;10.88;4.82;;;18.00;98.40;;;;;;5101755;27;20177;-59
2022/08/29 04:58:33;;;;;;;13.88;4.63;;;17.90;98.50;;;;;;5109080;27;20173;-59
2022/08/29 05:00:59;;;;;;;13.15;4.47;;;17.90;98.60;;;;;;5094712;28;20649;-59
2022/08/29 05:03:25;;;;;;;19.73;4.70;;;17.90;98.60;;;;;;5074717;28;20200;-63
2022/08/29 05:06:00;;;;;;;13.80;4.78;;;17.90;98.70;;;;;;5109778;28;20194;-58
2022/08/29 05:08:27;;;;;;;13.98;4.90;;;17.80;98.70;;;;;;5094801;28;20263;-59
2022/08/29 05:10:53;;;;;;;21.45;4.43;;;17.80;98.80;;;;;;5097427;27;20189;-60
2022/08/29 05:13:19;;;;;;;21.52;5.10;;;17.80;98.90;;;;;;5098785;27;20177;-60
2022/08/29 05:15:45;;;;;;;24.20;5.00;;;17.80;98.90;;;;;;5098855;28;20609;-59
2022/08/29 05:18:12;;;;;;;28.73;5.40;;;17.80;99.00;;;;;;5101320;28;20205;-60
2022/08/29 05:20:39;;;;;;;20.75;5.68;;;17.80;99.00;;;;;;5094597;28;20205;-63
2022/08/29 05:23:05;;;;;;;40.28;6.03;;;17.80;99.10;;;;;;5094681;27;20282;-59
2022/08/29 05:25:31;;;;;;;41.63;6.25;;;17.80;99.10;;;;;;5090937;28;20228;-59
2022/08/29 05:27:57;;;;;;;38.97;5.75;;;17.80;99.20;;;;;;5096936;28;20178;-60
2022/08/29 05:30:23;;;;;;;26.83;5.35;;;17.80;99.20;;;;;;5096256;28;20189;-59
2022/08/29 05:32:50;;;;;;;28.35;5.90;;;17.90;99.20;;;;;;5077086;28;20185;-59
2022/08/29 05:35:17;;;;;;;34.72;6.20;;;17.90;99.30;;;;;;5092667;28;20583;-58
2022/08/29 05:37:43;;;;;;;37.75;5.82;;;17.90;99.30;;;;;;5099909;28;20657;-59
2022/08/29 05:40:09;;;;;;;37.08;5.90;;;17.90;99.30;;;;;;5055921;28;20174;-59
2022/08/29 05:42:35;;;;;;;35.83;6.20;;;18.00;99.40;;;;;;5087863;28;20242;-52
2022/08/29 05:45:03;;;;;;;39.17;6.35;;;18.00;99.40;;;;;;5086258;28;20186;-51
2022/08/29 05:47:30;;;;;;;38.00;6.47;;;18.00;99.40;;;;;;5089226;28;20192;-52
2022/08/29 05:49:56;;;;;;;34.70;6.20;;;18.00;99.40;;;;;;5086605;27;20186;-55
2022/08/29 05:52:22;;;;;;;31.50;6.10;;;18.00;99.50;;;;;;5088357;28;20258;-53
2022/08/29 05:54:48;;;;;;;23.60;6.05;;;18.00;99.50;;;;;;5102463;27;20213;-55
2022/08/29 05:57:18;;;;;;;12.90;5.43;;;18.00;99.50;;;;;;5094656;28;20656;-54
2022/08/29 05:59:45;;;;;;;26.42;5.53;;;18.00;99.50;;;;;;5072352;28;20290;-56
2022/08/29 06:02:11;;;;;;;15.98;5.13;;;18.00;99.50;;;;;;5113510;27;20288;-56
2022/08/29 06:04:38;;;;;;;18.05;5.68;;;18.00;99.50;;;;;;5106530;28;20192;-54
2022/08/29 06:07:05;;;;;;;12.05;4.70;;;18.10;99.50;;;;;;5107903;27;20173;-53
2022/08/29 06:09:31;;;;;;;12.93;4.82;;;18.10;99.40;;;;;;5105747;28;20182;-52
2022/08/29 06:11:57;;;;;;;14.68;5.22;;;18.20;99.50;;;;;;5111809;28;20207;-57
2022/08/29 06:14:24;;;;;;;24.52;5.90;;;18.30;99.50;;;;;;5087180;28;21552;-54
2022/08/29 06:16:51;;;;;;;15.23;5.88;;;18.30;99.40;;;;;;5112946;27;20300;-56
2022/08/29 06:19:16;;;;;;;29.02;5.45;;;18.30;99.30;;;;;;5103275;28;20181;-53
2022/08/29 06:21:42;;;;;;;21.55;5.80;;;18.30;99.30;;;;;;5094655;28;20276;-56
2022/08/29 06:24:08;;;;;;;19.50;6.63;;;18.40;99.30;;;;;;5111561;28;20277;-54
2022/08/29 06:26:34;;;;;;;25.95;5.70;;;18.50;99.30;;;;;;5112725;28;20234;-55
2022/08/29 06:29:04;;;;;;;18.52;5.90;;;18.50;99.20;;;;;;5109093;28;20175;-57
2022/08/29 06:31:29;;;;;;;14.13;5.78;;;18.60;99.10;;;;;;5104548;28;20169;-56
2022/08/29 06:33:58;;;;;;;15.32;5.20;;;18.60;99.00;;;;;;5109505;28;20268;-59
2022/08/29 06:36:25;;;;;;;21.88;5.53;;;18.60;98.90;;;;;;5105843;28;20184;-58
2022/08/29 06:38:54;;;;;;;19.80;5.43;;;18.70;98.90;;;;;;5094945;28;20254;-55
2022/08/29 06:41:20;;;;;;;13.65;5.50;;;18.70;98.70;;;;;;5095251;28;20233;-57
2022/08/29 06:43:45;;;;;;;19.85;5.78;;;18.80;98.60;;;;;;5102328;28;20213;-51
2022/08/29 06:46:29;;;;;;;20.05;5.18;;;18.80;98.50;;;;;;5082149;28;20666;-56
2022/08/29 06:48:57;;;;;;;15.40;4.95;;;18.90;98.40;;;;;;5102715;27;20177;-52
2022/08/29 06:51:25;;;;;;;15.55;5.00;;;18.90;98.30;;;;;;5093987;28;20166;-57
2022/08/29 06:53:51;;;;;;;15.40;5.30;;;18.90;98.10;;;;;;5074887;28;20218;-56
2022/08/29 06:56:18;;;;;;;9.75;4.07;;;18.90;97.90;;;;;;5101919;28;20170;-54
2022/08/29 06:58:44;;;;;;;8.52;3.33;;;19.00;97.70;;;;;;5112776;28;20597;-49
2022/08/29 07:01:16;;;;;;;10.25;3.22;;;19.10;97.20;;;;;;5109154;28;20193;-55
2022/08/29 07:03:41;;;;;;;9.45;3.65;;;19.10;96.60;;;;;;5094758;28;20177;-56
2022/08/29 07:06:08;;;;;;;7.07;3.03;;;19.20;96.20;;;;;;5097788;28;20196;-54
2022/08/29 07:08:35;;;;;;;11.00;3.17;;;19.30;95.70;;;;;;5095462;28;20173;-54
2022/08/29 07:11:01;;;;;;;11.75;3.35;;;19.40;95.30;;;;;;5103642;28;20264;-62
2022/08/29 07:13:27;;;;;;;9.65;4.00;;;19.40;95.00;;;;;;5093099;27;20260;-55
2022/08/29 07:15:53;;;;;;;7.95;3.40;;;19.50;94.80;;;;;;5097258;28;20272;-55
2022/08/29 07:18:19;;;;;;;15.07;7.57;;;19.50;94.50;;;;;;5114839;28;20628;-55
2022/08/29 07:20:44;;;;;;;8.27;4.05;;;19.50;94.10;;;;;;5078858;28;20205;-56
2022/08/29 07:23:11;;;;;;;11.25;4.38;;;19.50;93.90;;;;;;5076299;28;20544;-55
2022/08/29 07:25:36;;;;;;;10.57;5.05;;;19.50;93.90;;;;;;5079847;28;20166;-55
2022/08/29 07:28:04;;;;;;;9.57;3.67;;;19.50;93.80;;;;;;5097956;28;20710;-65
2022/08/29 07:30:30;;;;;;;9.15;4.35;;;19.50;93.70;;;;;;5096276;28;20227;-56
2022/08/29 07:32:56;;;;;;;6.30;3.20;;;19.50;93.60;;;;;;5093959;28;20209;-56
2022/08/29 07:35:22;;;;;;;8.63;3.10;;;19.50;93.60;;;;;;5093215;28;20326;-57
2022/08/29 07:37:47;;;;;;;7.65;3.13;;;19.50;93.50;;;;;;5099185;28;20697;-56
2022/08/29 07:40:16;;;;;;;8.48;2.72;;;19.60;93.40;;;;;;5099517;28;20603;-57
2022/08/29 07:42:42;;;;;;;8.18;3.22;;;19.50;93.40;;;;;;5094830;28;20181;-58
2022/08/29 07:45:10;;;;;;;10.65;4.00;;;19.60;93.80;;;;;;5101067;28;20653;-57
2022/08/29 07:47:37;;;;;;;11.30;3.78;;;19.60;93.30;;;;;;5084029;28;20177;-55
2022/08/29 07:50:07;;;;;;;11.25;3.80;;;19.70;93.30;;;;;;5078441;28;20181;-53
2022/08/29 07:52:33;;;;;;;12.15;3.38;;;19.70;93.30;;;;;;5075290;28;20229;-51
2022/08/29 07:54:59;;;;;;;11.30;3.45;;;19.70;93.20;;;;;;5085423;28;20192;-54
2022/08/29 07:57:25;;;;;;;7.80;3.88;;;19.70;93.30;;;;;;5113448;28;20177;-58
2022/08/29 07:59:51;;;;;;;8.77;3.00;;;19.70;93.30;;;;;;5062175;28;20196;-53
2022/08/29 08:02:17;;;;;;;7.50;3.17;;;19.80;93.40;;;;;;5094765;28;20200;-51
2022/08/29 08:04:43;;;;;;;9.88;2.63;;;19.70;93.50;;;;;;5104102;28;20181;-55
2022/08/29 08:07:10;;;;;;;9.52;2.72;;;19.80;93.60;;;;;;5105916;28;20181;-51
2022/08/29 08:09:36;;;;;;;7.07;2.90;;;19.80;93.70;;;;;;5096495;28;20200;-54
2022/08/29 08:12:04;;;;;;;10.63;2.80;;;19.90;93.70;;;;;;5096023;28;20177;-56
2022/08/29 08:14:31;;;;;;;8.05;2.97;;;20.00;93.70;;;;;;5108147;28;20169;-51
2022/08/29 08:16:57;;;;;;;7.75;3.35;;;20.10;93.60;;;;;;5113036;28;20185;-53
2022/08/29 08:19:22;;;;;;;11.60;2.88;;;20.10;93.60;;;;;;5074731;28;20188;-52
2022/08/29 08:21:48;;;;;;;7.82;3.22;;;20.20;93.60;;;;;;5077467;28;20574;-54
2022/08/29 08:24:14;;;;;;;7.50;3.13;;;20.20;93.60;;;;;;5093469;28;20199;-54
2022/08/29 08:26:39;;;;;;;7.40;2.83;;;20.30;93.90;;;;;;5086284;28;20185;-56
2022/08/29 08:29:05;;;;;;;10.48;3.47;;;20.30;93.50;;;;;;5084677;28;20546;-62
2022/08/29 08:31:31;;;;;;;14.27;3.63;;;20.30;93.50;;;;;;5060092;28;20192;-57
2022/08/29 08:33:57;;;;;;;8.68;3.40;;;20.40;93.60;;;;;;5091946;28;20269;-54
2022/08/29 08:36:24;;;;;;;10.65;3.75;;;20.40;93.70;;;;;;5057760;28;20185;-54
2022/08/29 08:38:51;;;;;;;8.02;2.97;;;20.40;93.70;;;;;;5098976;28;20188;-53
2022/08/29 08:41:32;;;;;;;13.23;3.30;;;20.30;93.70;;;;;;5080499;28;20200;-54
2022/08/29 08:44:04;;;;;;;8.15;2.97;;;20.40;93.80;;;;;;5099369;28;20189;-53
2022/08/29 08:46:40;;;;;;;9.43;2.85;;;20.30;93.80;;;;;;5092335;28;20166;-55
2022/08/29 08:49:35;;;;;;;7.50;3.08;;;20.30;93.90;;;;;;5092722;28;20260;-51
2022/08/29 08:52:15;;;;;;;9.15;2.83;;;20.40;93.90;;;;;;5087939;28;20275;-51
2022/08/29 08:55:13;;;;;;;6.93;3.20;;;20.40;94.00;;;;;;5102647;28;20208;-52
2022/08/29 08:57:48;;;;;;;15.00;3.33;;;20.40;94.20;;;;;;5082580;28;20284;-56
2022/08/29 09:00:14;;;;;;;11.43;2.90;;;20.50;94.20;;;;;;5098922;28;20298;-53
2022/08/29 09:03:00;;;;;;;10.07;3.05;;;20.50;94.30;;;;;;5087443;28;20202;-54
2022/08/29 09:05:44;;;;;;;11.15;3.22;;;20.60;94.30;;;;;;5091991;28;20177;-49
2022/08/29 09:08:17;;;;;;;7.95;2.92;;;20.60;94.30;;;;;;5090129;28;20177;-53
2022/08/29 09:10:46;;;;;;;6.97;2.85;;;20.60;94.20;;;;;;5097155;28;20184;-52
2022/08/29 09:13:47;;;;;;;8.18;2.80;;;20.60;94.10;;;;;;5111326;28;20197;-52
2022/08/29 09:16:41;;;;;;;10.30;2.80;;;20.60;94.10;;;;;;5079098;28;20609;-51
2022/08/29 09:19:10;;;;;;;4.70;2.50;;;20.60;94.10;;;;;;5082974;28;20193;-59
2022/08/29 09:21:48;;;;;;;7.32;2.65;;;20.50;94.20;;;;;;5100107;28;20201;-55
2022/08/29 09:24:35;;;;;;;7.57;2.65;;;20.50;94.30;;;;;;5109244;28;20177;-55
2022/08/29 09:27:01;;;;;;;14.13;2.97;;;20.50;94.30;;;;;;5095746;28;20230;-47
2022/08/29 09:29:29;;;;;;;7.60;3.08;;;20.40;94.40;;;;;;5091501;28;20181;-61
2022/08/29 09:32:06;;;;;;;7.85;2.92;;;20.40;94.50;;;;;;5110874;28;20188;-55
2022/08/29 09:34:36;;;;;;;6.70;2.50;;;20.40;94.50;;;;;;5105858;28;20178;-52
2022/08/29 09:37:14;;;;;;;7.80;2.20;;;20.40;94.50;;;;;;5095624;28;20249;-53
2022/08/29 09:39:52;;;;;;;8.38;2.50;;;20.50;94.40;;;;;;5102075;28;20180;-54
2022/08/29 09:42:21;;;;;;;7.18;2.47;;;20.60;94.20;;;;;;5095843;27;20196;-53
2022/08/29 09:44:56;;;;;;;7.50;2.42;;;20.60;93.70;;;;;;5099694;28;20258;-54
2022/08/29 09:47:26;;;;;;;10.07;2.45;;;20.60;93.40;;;;;;5077006;28;20172;-61
2022/08/29 09:50:07;;;;;;;13.05;3.35;;;20.60;93.10;;;;;;5077199;28;20690;-52
2022/08/29 09:52:35;;;;;;;6.07;2.22;;;20.70;93.00;;;;;;5090963;28;20222;-62
2022/08/29 09:55:20;;;;;;;9.68;2.50;;;20.70;92.90;;;;;;5110079;28;20185;-53
2022/08/29 09:57:55;;;;;;;7.32;2.53;;;20.80;92.90;;;;;;5092104;28;20277;-58
2022/08/29 10:00:35;;;;;;;8.75;2.60;;;20.90;92.60;;;;;;5087019;28;20181;-51
2022/08/29 10:03:04;;;;;;;12.70;2.40;;;21.00;92.30;;;;;;5095811;28;20180;-51
2022/08/29 10:05:45;;;;;;;6.18;2.42;;;21.10;92.20;;;;;;5096801;28;20181;-52
2022/08/29 10:08:35;;;;;;;9.20;2.45;;;21.20;92.10;;;;;;5113148;28;20177;-51
2022/08/29 10:11:19;;;;;;;5.78;2.58;;;21.30;91.90;;;;;;5113330;28;20204;-49
2022/08/29 10:13:54;;;;;;;12.68;2.70;;;21.30;91.80;;;;;;5113019;28;20176;-56
2022/08/29 10:16:25;;;;;;;7.68;2.30;;;21.40;91.90;;;;;;5097682;28;20260;-56
2022/08/29 10:18:54;;;;;;;7.35;2.88;;;21.50;91.90;;;;;;5077844;28;20213;-52
2022/08/29 10:21:30;;;;;;;12.45;2.90;;;21.50;91.70;;;;;;5095409;28;20285;-51
2022/08/29 10:24:18;;;;;;;11.30;2.60;;;21.60;91.50;;;;;;5095164;28;20166;-54
2022/08/29 10:26:54;;;;;;;10.35;2.60;;;21.60;91.40;;;;;;5095337;28;20317;-51
2022/08/29 10:29:38;;;;;;;6.80;2.50;;;21.60;91.10;;;;;;5094415;28;20176;-50
2022/08/29 10:32:28;;;;;;;9.32;3.28;;;21.60;90.90;;;;;;5086495;28;20169;-60
2022/08/29 10:35:13;;;;;;;9.35;2.92;;;21.50;90.80;;;;;;5093199;28;20181;-48
2022/08/29 10:37:55;;;;;;;8.48;2.90;;;21.50;90.40;;;;;;5105335;27;20181;-53
2022/08/29 10:40:20;;;;;;;8.55;2.80;;;21.50;90.00;;;;;;5112149;28;20624;-54
2022/08/29 10:42:50;;;;;;;6.53;2.63;;;21.50;89.60;;;;;;5083045;28;20243;-53
2022/08/29 10:45:21;;;;;;;7.95;2.67;;;21.50;89.60;;;;;;5089204;28;20559;-51
2022/08/29 10:48:00;;;;;;;8.65;2.60;;;21.40;89.80;;;;;;5113973;28;20200;-50
2022/08/29 10:50:46;;;;;;;6.28;2.47;;;21.30;90.00;;;;;;5115042;28;20222;-47
2022/08/29 10:53:24;;;;;;;4.97;2.47;;;21.30;90.00;;;;;;5109229;28;20221;-52
2022/08/29 10:55:59;;;;;;;14.23;3.03;;;21.20;90.00;;;;;;5095373;28;20226;-51
2022/08/29 10:58:31;;;;;;;11.88;3.08;;;21.20;90.00;;;;;;5100017;28;20629;-51
2022/08/29 11:01:21;;;;;;;8.00;2.70;;;21.20;90.00;;;;;;5114046;28;20196;-52
2022/08/29 11:03:49;;;;;;;7.45;3.17;;;21.10;90.00;;;;;;5114895;28;20172;-54
2022/08/29 11:06:25;;;;;;;7.57;2.83;;;21.10;89.50;;;;;;5114686;28;20600;-50
2022/08/29 11:09:04;;;;;;;5.63;2.90;;;21.10;88.90;;;;;;5096360;28;20242;-48
2022/08/29 11:11:32;;;;;;;6.43;3.08;;;21.10;89.30;;;;;;5094908;28;20182;-48
2022/08/29 11:14:25;;;;;;;7.63;2.60;;;21.00;90.00;;;;;;5056091;28;20216;-53
2022/08/29 11:16:53;;;;;;;6.32;3.03;;;21.00;90.40;;;;;;5094236;28;20284;-50
2022/08/29 11:19:37;;;;;;;9.68;5.00;;;20.90;90.60;;;;;;5074698;28;20205;-56
2022/08/29 11:22:24;;;;;;;6.60;3.20;;;20.80;90.90;;;;;;5092609;28;20284;-53
2022/08/29 11:25:01;;;;;;;7.60;2.80;;;20.80;91.10;;;;;;5093760;28;20197;-49
2022/08/29 11:27:43;;;;;;;13.73;2.53;;;20.80;90.80;;;;;;5075822;28;20190;-50
2022/08/29 11:30:17;;;;;;;8.98;3.03;;;20.80;90.60;;;;;;5073120;28;20173;-53
2022/08/29 11:32:50;;;;;;;9.88;3.13;;;20.80;90.40;;;;;;5110289;28;20191;-49
2022/08/29 11:35:34;;;;;;;7.90;2.80;;;20.80;90.40;;;;;;5109263;28;20178;-54
2022/08/29 11:38:19;;;;;;;4.68;2.35;;;20.80;90.50;;;;;;5093479;28;20162;-51
2022/08/29 11:41:05;;;;;;;7.72;2.80;;;20.80;90.70;;;;;;5092020;28;20209;-49
2022/08/29 11:43:39;;;;;;;10.65;2.85;;;20.80;90.70;;;;;;5093300;28;20166;-49
2022/08/29 11:46:08;;;;;;;6.68;2.55;;;20.80;90.90;;;;;;5075043;28;20309;-49
2022/08/29 11:48:38;;;;;;;9.90;2.63;;;20.90;90.90;;;;;;5075216;28;20195;-52
2022/08/29 11:51:26;;;;;;;5.15;2.67;;;20.90;90.90;;;;;;5094805;28;20177;-49
2022/08/29 11:53:52;;;;;;;4.82;2.42;;;21.00;91.10;;;;;;5084017;28;20221;-53
2022/08/29 11:56:26;;;;;;;6.75;2.50;;;21.10;91.20;;;;;;5093587;28;20276;-47
2022/08/29 11:58:55;;;;;;;6.70;2.45;;;21.10;91.30;;;;;;5098137;28;20177;-52
2022/08/29 12:01:24;;;;;;;4.60;2.47;;;21.20;91.30;;;;;;5071319;28;20198;-54
2022/08/29 12:03:53;;;;;;;8.57;2.78;;;21.30;91.30;;;;;;5083206;28;20587;-53
2022/08/29 12:06:24;;;;;;;8.38;2.88;;;21.40;91.30;;;;;;5071857;28;20280;-50
2022/08/29 12:09:07;;;;;;;5.40;2.75;;;21.50;91.30;;;;;;5073917;28;20581;-57
2022/08/29 12:11:57;;;;;;;6.50;2.60;;;21.60;91.20;;;;;;5070711;28;20213;-52
2022/08/29 12:14:59;;;;;;;6.88;2.60;;;21.80;91.00;;;;;;5072935;28;20182;-52
2022/08/29 12:17:24;;;;;;;5.47;2.70;;;22.00;90.60;;;;;;5073418;28;20290;-52
2022/08/29 12:19:52;;;;;;;8.93;2.60;;;22.10;90.40;;;;;;5076940;28;20200;-54
2022/08/29 12:22:42;;;;;;;5.03;2.33;;;22.20;90.20;;;;;;5072796;28;20289;-50
2022/08/29 12:25:26;;;;;;;8.93;2.60;;;22.50;90.10;;;;;;5069979;28;20633;-51
2022/08/29 12:27:59;;;;;;;7.97;2.70;;;22.60;89.20;;;;;;5080738;28;20238;-52
2022/08/29 12:30:25;;;;;;;7.70;2.97;;;22.70;88.60;;;;;;5081324;28;20538;-51
2022/08/29 12:33:05;;;;;;;6.40;2.95;;;22.80;87.90;;;;;;5090818;28;20178;-51
2022/08/29 12:36:02;;;;;;;7.80;3.10;;;22.90;87.40;;;;;;5074855;28;20173;-54
2022/08/29 12:38:49;;;;;;;9.95;3.00;;;22.90;87.10;;;;;;5079690;28;20236;-51
2022/08/29 12:41:41;;;;;;;14.30;8.07;;;23.00;87.10;;;;;;5078042;28;20198;-51
2022/08/29 12:44:13;;;;;;;7.60;3.20;;;23.00;86.50;;;;;;5074666;28;20213;-46
2022/08/29 12:46:53;;;;;;;10.38;3.10;;;22.90;86.50;;;;;;5092680;28;20165;-58
2022/08/29 12:49:24;;;;;;;6.97;2.58;;;22.90;86.50;;;;;;5085987;28;20174;-54
2022/08/29 12:51:57;;;;;;;5.30;2.70;;;23.00;86.00;;;;;;5075012;28;20183;-49
2022/08/29 12:54:32;;;;;;;10.32;2.85;;;23.10;85.30;;;;;;5076982;28;20206;-52
2022/08/29 12:56:59;;;;;;;8.95;2.78;;;23.20;84.60;;;;;;5086794;28;20746;-50
2022/08/29 12:59:25;;;;;;;11.13;3.65;;;23.20;84.20;;;;;;5092140;28;20172;-49
2022/08/29 13:01:54;;;;;;;10.25;2.97;;;23.30;84.70;;;;;;5112619;28;20209;-53
2022/08/29 13:04:32;;;;;;;8.30;3.40;;;23.40;84.30;;;;;;5105906;28;20211;-58